Time;durP1;ratioP1;P1;durP2;ratioP2;P2;SDS_P1;SDS_P2;PMS_P1;PMS_P2;Temp;Humidity;BMP_temperature;BMP_pressure;BME280_temperature;BME280_humidity;BME280_pressure;Samples;Min_cycle;Max_cycle;Signal;HPM_P1;HPM_P2
2024/02/10 00:01:39;;;;;;;12.00;5.80;;;;;;;4.16;58.74;99533.36;104393;1253;61610;-55
2024/02/10 00:04:06;;;;;;;8.80;4.20;;;;;;;4.18;58.73;99533.79;105472;1252;64010;-59
2024/02/10 00:06:36;;;;;;;7.90;3.40;;;;;;;4.16;58.62;99528.16;104245;1253;60449;-56
2024/02/10 00:09:06;;;;;;;8.80;4.50;;;;;;;4.15;58.58;99525.27;108861;1253;59465;-59
2024/02/10 00:11:34;;;;;;;8.10;3.50;;;;;;;4.11;58.57;99519.28;105826;1257;68327;-56
2024/02/10 00:14:00;;;;;;;10.30;4.20;;;;;;;4.06;58.54;99519.63;107642;1253;61908;-58
2024/02/10 00:16:28;;;;;;;8.90;3.90;;;;;;;4.02;58.59;99520.05;105004;1257;64962;-57
2024/02/10 00:19:06;;;;;;;10.90;3.90;;;;;;;3.96;58.60;99511.63;104778;1254;59765;-56
2024/02/10 00:21:33;;;;;;;6.70;2.50;;;;;;;3.90;58.76;99505.39;106028;1254;60432;-63
2024/02/10 00:24:02;;;;;;;7.40;2.70;;;;;;;3.91;58.63;99503.12;105586;1257;65194;-58
2024/02/10 00:26:30;;;;;;;6.60;2.50;;;;;;;3.94;58.73;99501.19;105665;1255;61668;-60
2024/02/10 00:28:57;;;;;;;8.90;3.00;;;;;;;3.99;58.75;99509.55;104728;1253;63912;-59
2024/02/10 00:31:24;;;;;;;9.20;3.30;;;;;;;4.07;58.76;99510.72;106115;1253;61172;-60
2024/02/10 00:33:51;;;;;;;6.50;2.80;;;;;;;4.14;58.72;99508.34;105292;1257;60480;-61
2024/02/10 00:36:18;;;;;;;8.60;3.40;;;;;;;4.16;58.85;99507.67;105207;1253;65217;-67
2024/02/10 00:38:45;;;;;;;8.40;3.40;;;;;;;4.14;58.88;99509.02;108873;1253;61905;-63
2024/02/10 00:41:13;;;;;;;9.60;3.40;;;;;;;4.10;58.86;99514.48;108845;1253;62719;-62
2024/02/10 00:43:43;;;;;;;8.80;3.70;;;;;;;4.07;58.93;99513.13;108920;1252;60944;-62
2024/02/10 00:46:12;;;;;;;7.30;3.30;;;;;;;4.09;59.02;99513.70;108892;1252;58991;-62
2024/02/10 00:48:38;;;;;;;8.50;3.60;;;;;;;4.09;58.95;99517.88;108871;1253;65057;-62
2024/02/10 00:51:05;;;;;;;9.10;4.50;;;;;;;4.07;58.84;99522.65;108931;1253;60335;-62
2024/02/10 00:53:32;;;;;;;11.40;5.40;;;;;;;4.05;58.88;99524.89;108901;1253;63987;-65
2024/02/10 00:55:59;;;;;;;9.00;4.20;;;;;;;4.06;58.94;99522.95;106098;1257;60786;-65
2024/02/10 00:58:28;;;;;;;9.50;3.90;;;;;;;4.05;59.10;99522.33;106330;1253;61733;-63
2024/02/10 01:00:56;;;;;;;8.20;3.60;;;;;;;4.03;59.06;99518.64;108859;1253;67772;-62
2024/02/10 01:03:23;;;;;;;8.20;3.70;;;;;;;4.00;59.11;99512.38;108844;1253;61517;-65
2024/02/10 01:05:50;;;;;;;5.30;2.20;;;;;;;4.00;59.02;99512.59;108889;1252;66569;-64
2024/02/10 01:08:17;;;;;;;7.60;3.10;;;;;;;4.07;58.98;99514.04;108820;1257;58696;-64
2024/02/10 01:10:44;;;;;;;7.70;2.80;;;;;;;4.16;58.93;99513.63;108870;1253;60858;-64
2024/02/10 01:13:11;;;;;;;6.60;2.50;;;;;;;4.23;58.88;99508.27;108782;1253;68273;-64
2024/02/10 01:15:38;;;;;;;6.60;2.70;;;;;;;4.33;58.99;99504.33;108868;1253;61527;-65
2024/02/10 01:18:05;;;;;;;7.70;2.90;;;;;;;4.43;58.93;99502.70;107674;1253;62614;-64
2024/02/10 01:20:33;;;;;;;8.70;3.00;;;;;;;4.50;59.00;99499.61;107186;1255;60432;-63
2024/02/10 01:23:00;;;;;;;6.80;2.90;;;;;;;4.54;59.01;99492.20;105022;1253;500452;-64
2024/02/10 01:38:44;;;;;;;9.40;3.30;;;;;;;4.48;59.23;99478.52;102188;1292;605233;-63
2024/02/10 01:41:13;;;;;;;7.00;2.90;;;;;;;5.08;57.43;99478.08;104728;1270;190179;-62
2024/02/10 01:43:43;;;;;;;8.10;3.70;;;;;;;4.99;57.44;99478.70;104989;1257;59626;-61
2024/02/10 01:46:13;;;;;;;7.10;2.70;;;;;;;4.91;57.63;99475.62;104513;1256;62058;-62
2024/02/10 01:48:44;;;;;;;7.60;2.70;;;;;;;4.84;57.73;99475.55;108353;1256;60393;-60
2024/02/10 01:51:12;;;;;;;9.80;3.20;;;;;;;4.77;57.75;99476.58;104722;1253;63671;-63
2024/02/10 01:53:40;;;;;;;8.10;2.90;;;;;;;4.69;57.83;99479.41;108721;1253;59679;-64
2024/02/10 01:56:11;;;;;;;7.90;3.30;;;;;;;4.59;57.93;99479.38;106394;1254;60138;-64
2024/02/10 01:58:40;;;;;;;6.80;2.50;;;;;;;4.53;58.00;99480.02;104713;1254;62099;-57
2024/02/10 02:01:10;;;;;;;5.40;1.90;;;;;;;4.52;58.08;99482.34;104309;1253;62304;-67
2024/02/10 02:03:43;;;;;;;8.60;2.70;;;;;;;4.55;58.06;99482.66;106442;1253;62440;-66
2024/02/10 02:06:17;;;;;;;;;;;;;;;4.56;58.15;99478.92;106360;1258;59819;-66
2024/02/10 02:08:50;;;;;;;5.90;2.30;;;;;;;4.60;58.22;99480.52;108766;1253;58954;-64
2024/02/10 02:11:18;;;;;;;5.00;1.90;;;;;;;4.65;58.29;99486.09;108709;1253;62855;-65
2024/02/10 02:14:00;;;;;;;6.10;1.80;;;;;;;4.70;58.19;99488.59;106022;1254;61381;-66
2024/02/10 02:16:29;;;;;;;8.70;3.00;;;;;;;4.73;58.39;99491.64;105627;1253;64297;-64
2024/02/10 02:18:57;;;;;;;7.20;2.50;;;;;;;4.75;58.44;99487.84;104279;1254;59677;-66
2024/02/10 02:21:27;;;;;;;6.80;3.20;;;;;;;4.74;58.37;99491.54;104398;1253;59646;-64
2024/02/10 02:23:55;;;;;;;7.50;2.90;;;;;;;4.70;58.46;99496.92;105083;1257;66375;-69
2024/02/10 02:26:22;;;;;;;8.90;4.10;;;;;;;4.62;58.44;99499.85;104416;1255;60116;-70
2024/02/10 02:28:50;;;;;;;8.90;4.00;;;;;;;4.54;58.47;99500.21;105174;1254;63928;-59
2024/02/10 02:31:18;;;;;;;7.20;3.50;;;;;;;4.46;58.49;99498.88;104345;1254;59833;-64
2024/02/10 02:33:46;;;;;;;7.80;3.30;;;;;;;4.38;58.60;99497.16;104357;1253;60486;-66
2024/02/10 02:36:17;;;;;;;7.80;3.10;;;;;;;4.30;58.75;99494.58;104321;1259;65671;-67
2024/02/10 02:38:45;;;;;;;7.50;2.60;;;;;;;4.25;58.84;99488.52;104265;1259;60614;-67
2024/02/10 02:41:14;;;;;;;11.20;3.20;;;;;;;4.19;58.94;99487.67;108116;1256;63580;-65
2024/02/10 02:43:41;;;;;;;6.40;2.10;;;;;;;4.15;59.10;99488.84;104298;1254;61878;-64
2024/02/10 02:46:09;;;;;;;7.10;2.40;;;;;;;4.17;59.06;99490.61;104647;1253;62925;-64
2024/02/10 02:48:42;;;;;;;6.00;1.90;;;;;;;4.24;58.97;99489.27;104255;1253;64184;-64
2024/02/10 02:51:10;;;;;;;6.90;2.20;;;;;;;4.27;59.05;99491.47;104478;1254;60329;-65
2024/02/10 02:53:37;;;;;;;5.00;2.10;;;;;;;4.33;59.14;99492.49;104653;1259;62529;-64
2024/02/10 02:56:14;;;;;;;5.50;2.20;;;;;;;4.38;59.10;99490.39;104455;1253;59706;-65
2024/02/10 02:58:42;;;;;;;7.00;2.70;;;;;;;4.43;59.15;99490.91;104555;1254;59709;-65
2024/02/10 03:01:11;;;;;;;10.60;3.50;;;;;;;4.47;59.20;99484.38;104465;1254;64506;-59
2024/02/10 03:03:39;;;;;;;9.60;2.80;;;;;;;4.49;59.22;99485.16;104351;1253;62258;-65
2024/02/10 03:06:07;;;;;;;9.50;3.30;;;;;;;4.47;59.35;99487.37;106359;1253;71419;-69
2024/02/10 03:08:35;;;;;;;9.10;3.20;;;;;;;4.43;59.26;99493.48;104191;1255;59602;-65
2024/02/10 03:11:05;;;;;;;9.00;3.40;;;;;;;4.39;59.31;99501.61;104513;1254;59517;-64
2024/02/10 03:13:32;;;;;;;9.60;4.30;;;;;;;4.35;59.34;99505.23;104276;1253;64276;-62
2024/02/10 03:16:01;;;;;;;11.40;3.90;;;;;;;4.28;59.39;99507.92;104253;1253;60183;-66
2024/02/10 03:18:28;;;;;;;9.30;4.60;;;;;;;4.26;59.43;99504.42;104207;1259;75400;-66
2024/02/10 03:20:57;;;;;;;10.00;4.30;;;;;;;4.26;59.35;99512.54;108659;1257;59262;-66
2024/02/10 03:23:27;;;;;;;9.30;3.70;;;;;;;4.22;59.41;99515.59;107196;1254;59749;-66
2024/02/10 03:25:59;;;;;;;9.10;3.60;;;;;;;4.15;59.48;99511.90;105172;1254;62828;-65
2024/02/10 03:28:27;;;;;;;9.40;4.40;;;;;;;4.09;59.65;99510.77;105000;1253;60127;-65
2024/02/10 03:30:54;;;;;;;7.70;2.90;;;;;;;4.11;59.68;99508.36;107216;1253;64282;-64
2024/02/10 03:33:22;;;;;;;6.80;2.40;;;;;;;4.18;59.65;99503.19;105203;1254;59765;-65
2024/02/10 03:35:54;;;;;;;7.40;2.70;;;;;;;4.26;59.72;99497.44;104977;1253;59792;-62
2024/02/10 03:38:22;;;;;;;5.80;2.30;;;;;;;4.35;59.69;99493.06;108739;1253;63014;-65
2024/02/10 03:40:50;;;;;;;6.50;2.40;;;;;;;4.41;59.64;99493.80;108792;1253;61373;-64
2024/02/10 03:43:26;;;;;;;8.90;3.60;;;;;;;4.45;59.67;99497.91;105784;1253;62833;-63
2024/02/10 03:45:53;;;;;;;8.80;3.30;;;;;;;4.47;59.71;99501.93;105666;1255;59722;-63
2024/02/10 03:48:21;;;;;;;8.80;4.50;;;;;;;4.44;59.57;99501.48;105649;1253;59740;-60
2024/02/10 03:50:50;;;;;;;8.70;3.90;;;;;;;4.37;59.67;99496.70;105952;1253;62848;-61
2024/02/10 03:53:17;;;;;;;7.30;3.40;;;;;;;4.33;59.69;99494.59;105422;1253;61435;-61
2024/02/10 03:55:46;;;;;;;11.20;4.20;;;;;;;4.27;59.74;99493.55;105182;1259;62666;-68
2024/02/10 03:58:16;;;;;;;8.70;3.70;;;;;;;4.22;59.76;99496.15;106127;1254;59687;-68
2024/02/10 04:00:44;;;;;;;8.20;3.50;;;;;;;4.19;59.87;99499.69;104559;1253;60781;-65
2024/02/10 04:03:12;;;;;;;7.70;3.20;;;;;;;4.15;59.78;99504.13;104393;1253;63031;-66
2024/02/10 04:05:40;;;;;;;8.60;3.10;;;;;;;4.11;59.90;99507.52;108713;1253;61993;-65
2024/02/10 04:08:08;;;;;;;8.50;3.20;;;;;;;4.08;59.99;99503.17;106510;1253;67168;-64
2024/02/10 04:10:35;;;;;;;7.10;2.40;;;;;;;4.11;59.93;99497.06;104267;1259;59988;-61
2024/02/10 04:13:05;;;;;;;7.60;3.60;;;;;;;4.19;59.82;99497.94;104359;1259;60454;-67
2024/02/10 04:15:33;;;;;;;6.60;2.60;;;;;;;4.24;59.75;99502.11;108818;1253;71908;-61
2024/02/10 04:18:02;;;;;;;6.30;2.60;;;;;;;4.30;59.77;99502.38;108677;1253;61440;-66
2024/02/10 04:20:30;;;;;;;6.90;2.70;;;;;;;4.39;59.81;99497.77;108731;1254;66895;-66
2024/02/10 04:22:59;;;;;;;8.00;3.40;;;;;;;4.49;59.69;99492.94;108629;1253;60293;-67
2024/02/10 04:25:31;;;;;;;7.40;2.40;;;;;;;4.53;59.67;99485.69;104217;1257;60194;-59
2024/02/10 04:28:02;;;;;;;7.20;3.30;;;;;;;4.54;59.70;99486.52;108620;1253;76928;-63
2024/02/10 04:30:31;;;;;;;7.20;3.40;;;;;;;4.52;59.69;99488.75;104282;1258;60341;-61
2024/02/10 04:32:58;;;;;;;7.00;3.00;;;;;;;4.50;59.51;99495.83;104272;1255;62675;-62
2024/02/10 04:35:26;;;;;;;7.60;2.80;;;;;;;4.43;59.41;99495.27;104154;1253;61992;-60
2024/02/10 04:37:55;;;;;;;8.80;3.70;;;;;;;4.36;59.61;99497.01;104180;1253;61743;-60
2024/02/10 04:40:23;;;;;;;8.30;3.40;;;;;;;4.29;59.71;99496.73;108714;1253;64609;-63
2024/02/10 04:42:53;;;;;;;6.70;2.40;;;;;;;4.23;59.88;99495.42;108731;1253;60793;-62
2024/02/10 04:45:30;;;;;;;7.50;3.10;;;;;;;4.19;59.92;99493.44;108715;1253;62523;-62
2024/02/10 04:48:13;;;;;;;8.50;3.90;;;;;;;4.16;60.00;99498.14;108654;1253;59144;-63
2024/02/10 04:50:41;;;;;;;7.50;2.60;;;;;;;4.16;60.11;99497.64;108796;1253;59523;-62
2024/02/10 04:53:08;;;;;;;7.90;2.70;;;;;;;4.15;60.09;99497.18;108845;1253;64122;-63
2024/02/10 04:55:36;;;;;;;6.80;2.90;;;;;;;4.18;60.09;99505.11;108275;1256;61329;-62
2024/02/10 04:58:04;;;;;;;8.20;2.40;;;;;;;4.27;59.96;99510.44;106801;1259;64747;-61
2024/02/10 05:00:32;;;;;;;8.90;3.10;;;;;;;4.34;59.91;99514.61;104212;1254;60419;-61
2024/02/10 05:03:02;;;;;;;7.10;2.70;;;;;;;4.41;59.91;99515.66;104193;1253;59513;-61
2024/02/10 05:05:32;;;;;;;6.80;2.60;;;;;;;4.49;59.97;99509.98;104686;1253;62850;-63
2024/02/10 05:08:00;;;;;;;7.30;3.00;;;;;;;4.56;59.85;99507.70;107587;1253;61444;-62
2024/02/10 05:10:28;;;;;;;6.60;2.70;;;;;;;4.59;59.79;99510.62;104295;1255;62489;-62
2024/02/10 05:12:55;;;;;;;9.40;3.10;;;;;;;4.60;59.87;99513.20;104431;1253;59624;-62
2024/02/10 05:15:25;;;;;;;7.60;3.30;;;;;;;4.62;59.76;99517.95;106694;1260;59367;-62
2024/02/10 05:17:53;;;;;;;6.70;2.60;;;;;;;4.59;59.69;99517.96;108700;1253;62929;-65
2024/02/10 05:20:21;;;;;;;7.20;2.80;;;;;;;4.55;59.54;99519.44;105120;1253;60778;-64
2024/02/10 05:22:57;;;;;;;6.00;2.80;;;;;;;4.49;59.53;99519.14;108743;1253;64204;-64
2024/02/10 05:25:28;;;;;;;7.10;2.90;;;;;;;4.44;59.55;99516.06;108691;1253;58157;-62
2024/02/10 05:28:00;;;;;;;8.60;3.00;;;;;;;4.39;59.62;99508.88;108766;1253;59004;-64
2024/02/10 05:30:28;;;;;;;7.30;2.80;;;;;;;4.37;59.57;99509.73;108600;1253;62834;-61
2024/02/10 05:33:00;;;;;;;9.40;3.30;;;;;;;4.34;59.63;99512.88;108733;1253;60251;-64
2024/02/10 05:35:29;;;;;;;10.00;4.30;;;;;;;4.32;59.66;99516.38;108672;1254;62537;-60
2024/02/10 05:37:58;;;;;;;7.00;3.30;;;;;;;4.33;59.69;99517.67;108729;1254;57896;-64
2024/02/10 05:40:27;;;;;;;7.10;2.70;;;;;;;4.40;59.60;99519.75;108688;1253;59107;-63
2024/02/10 05:42:58;;;;;;;6.00;2.30;;;;;;;4.46;59.49;99522.34;108691;1253;63165;-60
2024/02/10 05:45:28;;;;;;;5.40;2.30;;;;;;;4.52;59.45;99525.40;106479;1256;60517;-60
2024/02/10 05:47:58;;;;;;;5.80;2.40;;;;;;;4.58;59.49;99528.76;105589;1259;62526;-60
2024/02/10 05:50:27;;;;;;;6.10;2.20;;;;;;;4.62;59.61;99530.94;106234;1255;62275;-62
2024/02/10 05:52:57;;;;;;;9.30;3.30;;;;;;;4.65;59.71;99531.09;108675;1258;59096;-64
2024/02/10 05:55:29;;;;;;;7.00;2.70;;;;;;;4.68;59.68;99531.42;108765;1253;67098;-63
2024/02/10 05:58:06;;;;;;;9.40;4.00;;;;;;;4.70;59.65;99536.36;107950;1253;61835;-62
2024/02/10 06:00:40;;;;;;;8.90;3.20;;;;;;;4.68;59.47;99539.97;108692;1254;63791;-63
2024/02/10 06:03:08;;;;;;;5.90;3.20;;;;;;;4.64;59.55;99543.50;108606;1257;58537;-64
2024/02/10 06:05:36;;;;;;;8.10;2.90;;;;;;;4.61;59.48;99543.71;105302;1253;60992;-60
2024/02/10 06:08:10;;;;;;;6.00;2.30;;;;;;;4.57;59.47;99543.67;105496;1254;63770;-60
2024/02/10 06:10:39;;;;;;;7.10;3.10;;;;;;;4.51;59.54;99544.40;105247;1257;62333;-62
2024/02/10 06:13:07;;;;;;;7.20;2.60;;;;;;;4.44;59.70;99550.55;108648;1254;62606;-61
2024/02/10 06:15:35;;;;;;;10.70;3.10;;;;;;;4.37;59.67;99555.39;108687;1253;58385;-61
2024/02/10 06:18:03;;;;;;;6.00;2.30;;;;;;;4.32;59.77;99557.65;106148;1255;60440;-56
2024/02/10 06:20:32;;;;;;;6.30;2.10;;;;;;;4.33;59.88;99554.11;105538;1254;67200;-59
2024/02/10 06:23:01;;;;;;;6.50;2.40;;;;;;;4.40;59.81;99552.47;105122;1253;61388;-58
2024/02/10 06:25:28;;;;;;;6.20;1.60;;;;;;;4.44;59.84;99551.33;105042;1254;62551;-57
2024/02/10 06:27:58;;;;;;;6.20;2.20;;;;;;;4.49;59.95;99543.82;105203;1257;60576;-60
2024/02/10 06:30:30;;;;;;;5.80;2.70;;;;;;;4.54;59.98;99539.86;105715;1253;60611;-60
2024/02/10 06:33:04;;;;;;;7.00;2.70;;;;;;;4.60;60.00;99543.63;105480;1253;68000;-58
2024/02/10 06:35:37;;;;;;;7.00;3.00;;;;;;;4.65;60.07;99551.42;105937;1253;61195;-67
2024/02/10 06:38:05;;;;;;;8.40;3.60;;;;;;;4.64;60.14;99555.30;108695;1254;63771;-68
2024/02/10 06:40:37;;;;;;;6.70;2.40;;;;;;;4.66;60.23;99556.92;108644;1253;59958;-67
2024/02/10 06:43:05;;;;;;;7.80;2.90;;;;;;;4.69;60.22;99559.70;108795;1253;60188;-65
2024/02/10 06:45:36;;;;;;;5.60;2.30;;;;;;;4.67;60.12;99562.41;108792;1253;64965;-65
2024/02/10 06:48:05;;;;;;;5.80;2.60;;;;;;;4.64;60.04;99558.92;108765;1253;60225;-70
2024/02/10 06:50:35;;;;;;;6.30;2.60;;;;;;;4.63;60.01;99557.42;108719;1253;66168;-61
2024/02/10 06:53:04;;;;;;;6.00;2.00;;;;;;;4.61;59.92;99554.98;108537;1253;58815;-62
2024/02/10 06:55:33;;;;;;;4.60;2.20;;;;;;;4.59;59.80;99562.27;108719;1253;59009;-62
2024/02/10 06:58:02;;;;;;;5.50;2.20;;;;;;;4.53;59.77;99563.37;106073;1253;66288;-65
2024/02/10 07:00:37;;;;;;;5.80;1.90;;;;;;;4.49;59.85;99564.88;108767;1253;61347;-62
2024/02/10 07:03:05;;;;;;;;;;;;;;;4.46;60.00;99569.17;108739;1253;63693;-62
2024/02/10 07:05:33;;;;;;;5.10;1.40;;;;;;;4.49;59.97;99576.36;108712;1253;59267;-64
2024/02/10 07:08:01;;;;;;;4.10;1.20;;;;;;;4.56;59.92;99575.48;105623;1254;60314;-63
2024/02/10 07:10:29;;;;;;;4.00;1.30;;;;;;;4.64;59.90;99566.27;104980;1256;63635;-63
2024/02/10 07:12:59;;;;;;;4.40;1.40;;;;;;;4.70;59.90;99560.96;104333;1253;61815;-64
2024/02/10 07:15:31;;;;;;;4.20;1.30;;;;;;;4.77;59.89;99564.83;104268;1253;62450;-63
2024/02/10 07:18:02;;;;;;;6.70;1.90;;;;;;;4.84;59.95;99569.56;103977;1253;61304;-63
2024/02/10 07:20:32;;;;;;;5.00;1.80;;;;;;;4.89;59.94;99573.59;104196;1258;60562;-64
2024/02/10 07:23:03;;;;;;;5.40;2.20;;;;;;;4.90;59.95;99570.23;104189;1253;65001;-63
2024/02/10 07:25:32;;;;;;;5.30;2.00;;;;;;;4.90;59.92;99577.54;104446;1253;61548;-59
2024/02/10 07:28:03;;;;;;;6.10;2.20;;;;;;;4.86;59.83;99581.76;105554;1254;63735;-61
2024/02/10 07:30:32;;;;;;;4.90;1.60;;;;;;;4.83;59.74;99582.98;104280;1256;60547;-60
2024/02/10 07:33:08;;;;;;;5.60;2.40;;;;;;;4.80;59.79;99586.39;104260;1253;60476;-66
2024/02/10 07:35:37;;;;;;;5.10;1.90;;;;;;;4.74;59.85;99584.00;104363;1256;65910;-63
2024/02/10 07:38:05;;;;;;;5.60;2.00;;;;;;;4.73;59.92;99580.59;104199;1253;61353;-64
2024/02/10 07:40:34;;;;;;;7.10;2.50;;;;;;;4.70;59.90;99584.96;104265;1257;67260;-61
2024/02/10 07:43:04;;;;;;;6.80;2.10;;;;;;;4.66;59.95;99592.38;104730;1254;60510;-61
2024/02/10 07:45:32;;;;;;;5.80;1.80;;;;;;;4.62;59.99;99594.56;104503;1256;62659;-60
2024/02/10 07:48:01;;;;;;;4.10;1.60;;;;;;;4.59;60.02;99594.58;108657;1253;66024;-61
2024/02/10 07:50:29;;;;;;;5.80;1.90;;;;;;;4.63;59.93;99594.11;108680;1253;61368;-60
2024/02/10 07:52:56;;;;;;;6.20;1.60;;;;;;;4.71;59.93;99589.45;108732;1253;63769;-61
2024/02/10 07:55:25;;;;;;;4.30;1.10;;;;;;;4.77;59.89;99583.61;108672;1253;58384;-61
2024/02/10 07:57:55;;;;;;;4.60;1.40;;;;;;;4.86;59.92;99580.57;107162;1255;60346;-70
2024/02/10 08:00:22;;;;;;;4.00;1.00;;;;;;;4.97;59.98;99578.77;104122;1254;63900;-62
2024/02/10 08:02:50;;;;;;;5.80;1.90;;;;;;;5.08;59.95;99573.67;104280;1254;61478;-61
2024/02/10 08:05:20;;;;;;;2.60;1.10;;;;;;;5.12;59.89;99573.71;104370;1259;62841;-61
2024/02/10 08:07:49;;;;;;;7.30;2.00;;;;;;;5.15;59.82;99572.52;108612;1253;59568;-63
2024/02/10 08:10:18;;;;;;;4.80;2.00;;;;;;;5.15;59.86;99572.62;108704;1253;59917;-61
2024/02/10 08:12:50;;;;;;;6.30;3.20;;;;;;;5.16;59.65;99570.98;105977;1256;63711;-58
2024/02/10 08:15:18;;;;;;;4.60;1.50;;;;;;;5.12;59.48;99567.30;107822;1253;60537;-57
2024/02/10 08:17:45;;;;;;;6.50;1.80;;;;;;;5.07;59.46;99567.83;104197;1253;63861;-58
2024/02/10 08:20:13;;;;;;;4.40;1.40;;;;;;;5.01;59.56;99566.29;104755;1257;60456;-59
2024/02/10 08:22:41;;;;;;;5.00;2.30;;;;;;;4.96;59.54;99570.80;104180;1253;60330;-60
2024/02/10 08:25:09;;;;;;;6.10;1.90;;;;;;;4.93;59.65;99572.11;104164;1257;66859;-58
2024/02/10 08:27:39;;;;;;;5.00;1.60;;;;;;;4.92;59.75;99574.22;104469;1259;61191;-59
2024/02/10 08:30:17;;;;;;;3.70;1.20;;;;;;;4.91;59.77;99578.51;108735;1253;66209;-59
2024/02/10 08:32:45;;;;;;;4.00;1.00;;;;;;;4.91;59.61;99579.34;105438;1257;60507;-59
2024/02/10 08:35:16;;;;;;;6.50;1.50;;;;;;;4.95;59.44;99579.97;104574;1253;60483;-60
2024/02/10 08:37:43;;;;;;;4.40;1.40;;;;;;;5.01;59.46;99580.95;104446;1255;64914;-58
2024/02/10 08:40:12;;;;;;;3.50;1.10;;;;;;;5.06;59.57;99585.64;104241;1259;60512;-58
2024/02/10 08:42:40;;;;;;;3.80;1.00;;;;;;;5.13;59.42;99587.92;108645;1253;63770;-59
2024/02/10 08:45:14;;;;;;;3.60;1.10;;;;;;;5.21;59.40;99588.59;108695;1253;59223;-59
2024/02/10 08:47:42;;;;;;;4.30;1.70;;;;;;;5.25;59.40;99581.88;107055;1253;60151;-58
2024/02/10 08:50:11;;;;;;;4.80;1.50;;;;;;;5.26;59.38;99580.21;108005;1253;63757;-59
2024/02/10 08:52:39;;;;;;;4.30;1.40;;;;;;;5.30;59.39;99583.78;104306;1259;60468;-60
2024/02/10 08:55:07;;;;;;;3.50;1.20;;;;;;;5.32;59.30;99579.27;104224;1253;65921;-60
2024/02/10 08:57:35;;;;;;;3.00;1.20;;;;;;;5.31;59.36;99577.98;106811;1256;60457;-60
2024/02/10 09:00:07;;;;;;;3.50;1.20;;;;;;;5.30;59.16;99579.05;108638;1253;59071;-62
2024/02/10 09:02:35;;;;;;;5.20;1.60;;;;;;;5.30;59.13;99573.68;106598;1258;64919;-62
2024/02/10 09:05:06;;;;;;;3.80;1.10;;;;;;;5.26;59.14;99570.98;104263;1253;61394;-54
2024/02/10 09:07:34;;;;;;;4.40;1.90;;;;;;;5.21;59.07;99568.55;108832;1253;63885;-59
2024/02/10 09:10:02;;;;;;;4.70;1.50;;;;;;;5.18;59.09;99569.29;108688;1253;58972;-65
2024/02/10 09:12:30;;;;;;;3.30;1.30;;;;;;;5.14;59.11;99568.71;107621;1259;59626;-65
2024/02/10 09:14:57;;;;;;;4.60;1.60;;;;;;;5.11;59.10;99568.55;104338;1259;67185;-63
2024/02/10 09:17:25;;;;;;;4.70;1.70;;;;;;;5.07;59.04;99566.58;104250;1253;62683;-66
2024/02/10 09:19:53;;;;;;;3.50;0.70;;;;;;;5.07;59.05;99565.70;105752;1259;62535;-67
2024/02/10 09:22:21;;;;;;;4.50;1.60;;;;;;;5.15;59.02;99568.50;108682;1253;59193;-68
2024/02/10 09:24:51;;;;;;;4.00;1.30;;;;;;;5.23;58.99;99570.73;108857;1253;62538;-59
2024/02/10 09:27:22;;;;;;;4.80;1.00;;;;;;;5.29;58.92;99570.08;108402;1255;66921;-66
2024/02/10 09:29:51;;;;;;;3.80;1.40;;;;;;;5.34;58.96;99573.20;105477;1257;60432;-66
2024/02/10 09:32:19;;;;;;;2.40;0.70;;;;;;;5.40;58.94;99575.06;104883;1253;65005;-64
2024/02/10 09:34:46;;;;;;;4.00;1.10;;;;;;;5.46;59.02;99573.25;104889;1253;60547;-64
2024/02/10 09:37:14;;;;;;;3.20;0.90;;;;;;;5.46;59.15;99571.98;104332;1253;61339;-66
2024/02/10 09:39:42;;;;;;;3.50;1.50;;;;;;;5.46;59.09;99573.64;104359;1254;63677;-68
2024/02/10 09:42:18;;;;;;;3.40;1.60;;;;;;;5.44;58.95;99570.98;104339;1254;61394;-69
2024/02/10 09:44:45;;;;;;;3.50;1.70;;;;;;;5.42;58.95;99565.58;104361;1256;66136;-65
2024/02/10 09:47:14;;;;;;;3.30;1.20;;;;;;;5.39;58.95;99568.47;106077;1253;59129;-66
2024/02/10 09:49:42;;;;;;;4.90;1.50;;;;;;;5.38;58.92;99570.45;104217;1253;62015;-65
2024/02/10 09:52:10;;;;;;;4.20;1.80;;;;;;;5.35;58.82;99568.45;108551;1253;63704;-67
2024/02/10 09:54:37;;;;;;;4.50;1.70;;;;;;;5.32;58.98;99569.02;108678;1253;61352;-65
2024/02/10 09:57:07;;;;;;;5.50;1.40;;;;;;;5.31;58.97;99567.67;107595;1257;62481;-64
2024/02/10 09:59:35;;;;;;;4.70;1.50;;;;;;;5.28;58.90;99570.49;104463;1261;62786;-62
2024/02/10 10:02:07;;;;;;;5.60;1.20;;;;;;;5.25;58.99;99571.94;104153;1253;61177;-65
2024/02/10 10:04:35;;;;;;;5.00;1.20;;;;;;;5.21;59.02;99564.78;107478;1259;64229;-63
2024/02/10 10:07:06;;;;;;;2.30;0.70;;;;;;;5.23;58.95;99564.92;104396;1257;73236;-60
2024/02/10 10:09:34;;;;;;;2.90;1.00;;;;;;;5.28;58.90;99562.84;105702;1254;63249;-59
2024/02/10 10:12:09;;;;;;;3.70;0.90;;;;;;;5.35;58.94;99559.41;104103;1255;60572;-59
2024/02/10 10:14:40;;;;;;;2.10;0.70;;;;;;;5.45;58.99;99555.55;108551;1253;59004;-60
2024/02/10 10:17:13;;;;;;;2.70;0.80;;;;;;;5.54;58.93;99555.75;108648;1257;65352;-58
2024/02/10 10:19:45;;;;;;;3.00;1.00;;;;;;;5.63;58.84;99553.79;108604;1253;63825;-58
2024/02/10 10:22:15;;;;;;;4.70;1.80;;;;;;;5.69;58.87;99555.77;108788;1253;63815;-61
2024/02/10 10:24:42;;;;;;;3.10;1.10;;;;;;;5.73;58.79;99552.46;108569;1256;60213;-56
2024/02/10 10:27:10;;;;;;;3.40;1.30;;;;;;;5.77;58.77;99552.17;108694;1253;60672;-56
2024/02/10 10:29:37;;;;;;;5.70;2.70;;;;;;;5.80;58.60;99551.48;108601;1253;64902;-57
2024/02/10 10:32:06;;;;;;;3.80;1.50;;;;;;;5.81;58.47;99549.50;104747;1258;61501;-59
2024/02/10 10:34:34;;;;;;;3.50;1.10;;;;;;;5.80;58.38;99550.44;108781;1253;77809;-57
2024/02/10 10:37:01;;;;;;;4.00;1.80;;;;;;;5.77;58.26;99549.11;108535;1260;60712;-59
2024/02/10 10:39:36;;;;;;;3.90;1.30;;;;;;;5.72;58.30;99546.29;108752;1253;59086;-60
2024/02/10 10:42:07;;;;;;;3.50;0.80;;;;;;;5.68;58.24;99547.51;108526;1253;63914;-57
2024/02/10 10:44:35;;;;;;;5.00;1.20;;;;;;;5.60;58.25;99547.84;108560;1254;61389;-59
2024/02/10 10:47:05;;;;;;;4.60;0.90;;;;;;;5.53;58.27;99546.27;108648;1254;63741;-59
2024/02/10 10:49:33;;;;;;;4.60;1.60;;;;;;;5.49;58.33;99542.09;105094;1259;60375;-66
2024/02/10 10:52:05;;;;;;;3.70;1.30;;;;;;;5.44;58.49;99538.10;104497;1257;60329;-59
2024/02/10 10:54:36;;;;;;;2.80;0.60;;;;;;;5.45;58.53;99538.17;104375;1253;63637;-59
2024/02/10 10:57:13;;;;;;;4.30;1.00;;;;;;;5.52;58.54;99536.50;108625;1253;61500;-60
2024/02/10 10:59:51;;;;;;;3.40;0.80;;;;;;;5.59;58.47;99534.70;104938;1253;72048;-65
2024/02/10 11:02:19;;;;;;;3.20;1.00;;;;;;;5.66;58.58;99532.10;104400;1253;61887;-57
2024/02/10 11:05:03;;;;;;;5.30;1.00;;;;;;;5.74;58.58;99535.73;104264;1259;62670;-58
2024/02/10 11:07:33;;;;;;;4.10;1.10;;;;;;;5.78;58.65;99537.17;104289;1253;63885;-57
2024/02/10 11:10:01;;;;;;;6.60;3.60;;;;;;;5.79;58.58;99533.44;106562;1259;70044;-56
2024/02/10 11:12:31;;;;;;;5.20;1.40;;;;;;;5.76;58.60;99536.58;104317;1253;62531;-57
2024/02/10 11:15:00;;;;;;;5.00;1.90;;;;;;;5.74;58.52;99534.14;104069;1253;59301;-58
2024/02/10 11:17:30;;;;;;;5.30;1.80;;;;;;;5.71;58.57;99534.35;104515;1253;60499;-62
2024/02/10 11:20:11;;;;;;;5.70;1.50;;;;;;;5.66;58.54;99529.72;105847;1253;63731;-64
2024/02/10 11:22:42;;;;;;;4.20;1.70;;;;;;;5.58;58.58;99526.29;104332;1259;61999;-56
2024/02/10 11:25:11;;;;;;;4.70;1.90;;;;;;;5.50;58.71;99527.73;104116;1253;62633;-65
2024/02/10 11:27:47;;;;;;;5.30;1.60;;;;;;;5.45;58.79;99528.96;104256;1253;60961;-61
2024/02/10 11:30:16;;;;;;;4.30;1.60;;;;;;;5.38;58.78;99534.12;104134;1253;60414;-64
2024/02/10 11:32:45;;;;;;;6.10;1.90;;;;;;;5.33;58.86;99531.16;104481;1253;63642;-62
2024/02/10 11:35:15;;;;;;;5.20;1.50;;;;;;;5.28;59.07;99533.13;107283;1253;63924;-62
2024/02/10 11:37:44;;;;;;;4.40;1.80;;;;;;;5.26;59.16;99534.68;104748;1253;66290;-65
2024/02/10 11:40:15;;;;;;;3.40;1.10;;;;;;;5.30;59.11;99533.70;104494;1253;60646;-59
2024/02/10 11:42:43;;;;;;;3.80;1.30;;;;;;;5.38;59.09;99534.81;108665;1253;58299;-59
2024/02/10 11:45:11;;;;;;;3.00;1.30;;;;;;;5.48;59.23;99532.74;108474;1253;67378;-60
2024/02/10 11:47:39;;;;;;;3.90;1.10;;;;;;;5.57;59.12;99533.46;108667;1253;63722;-54
2024/02/10 11:50:06;;;;;;;6.00;3.50;;;;;;;5.66;59.12;99533.69;108617;1255;62720;-60
2024/02/10 11:52:36;;;;;;;3.90;1.20;;;;;;;5.74;59.02;99534.48;108663;1253;58523;-59
2024/02/10 11:55:04;;;;;;;5.40;2.30;;;;;;;5.80;59.00;99534.22;108732;1255;59687;-61
2024/02/10 11:57:32;;;;;;;5.20;1.80;;;;;;;5.85;58.98;99534.06;108422;1253;65410;-59